createdAt,value
2022-11-27T00:01:15.116Z,5.10
2022-11-27T00:07:16.838Z,5.10
2022-11-27T00:13:18.926Z,5.00
2022-11-27T00:19:20.551Z,5.00
2022-11-27T00:25:22.223Z,5.00
2022-11-27T00:31:27.470Z,5.00
2022-11-27T00:37:29.128Z,5.00
2022-11-27T00:43:30.797Z,4.90
2022-11-27T00:49:32.717Z,4.90
2022-11-27T00:55:34.378Z,4.90
2022-11-27T01:01:38.271Z,4.90
2022-11-27T01:07:39.959Z,4.80
2022-11-27T01:13:41.833Z,4.80
2022-11-27T01:19:43.518Z,4.80
2022-11-27T01:25:45.164Z,4.80
2022-11-27T01:31:46.856Z,4.80
2022-11-27T01:37:48.526Z,4.80
2022-11-27T01:43:53.123Z,4.80
2022-11-27T01:49:56.412Z,4.80
2022-11-27T01:56:00.218Z,4.70
2022-11-27T02:02:02.833Z,4.70
2022-11-27T02:08:06.722Z,4.60
2022-11-27T02:14:26.638Z,4.50
2022-11-27T02:20:48.504Z,4.50
2022-11-27T02:26:50.118Z,4.40
2022-11-27T02:32:57.730Z,4.40
2022-11-27T02:39:04.783Z,4.30
2022-11-27T02:45:26.710Z,4.40
2022-11-27T02:51:37.454Z,4.40
2022-11-27T02:57:39.754Z,4.40
2022-11-27T03:03:46.269Z,4.40
2022-11-27T03:09:49.970Z,4.40
2022-11-27T03:15:59.214Z,4.30
2022-11-27T03:22:01.664Z,4.40
2022-11-27T03:28:05.063Z,4.40
2022-11-27T03:34:07.099Z,4.30
2022-11-27T03:40:09.400Z,4.30
2022-11-27T03:46:15.273Z,4.40
2022-11-27T03:52:35.624Z,4.40
2022-11-27T03:58:46.013Z,4.40
2022-11-27T04:04:47.645Z,4.40
2022-11-27T04:10:49.411Z,4.40
2022-11-27T04:16:51.052Z,4.40
2022-11-27T04:22:52.699Z,4.50
2022-11-27T04:28:54.309Z,4.40
2022-11-27T04:34:55.955Z,4.40
2022-11-27T04:40:58.017Z,4.40
2022-11-27T04:46:59.860Z,4.30
2022-11-27T04:53:01.768Z,4.30
2022-11-27T04:59:04.136Z,4.40
2022-11-27T05:05:05.896Z,4.50
2022-11-27T05:11:08.700Z,4.40
2022-11-27T05:17:10.513Z,4.40
2022-11-27T05:23:12.135Z,4.40
2022-11-27T05:29:14.885Z,4.40
2022-11-27T05:35:16.571Z,4.50
2022-11-27T05:41:18.327Z,4.40
2022-11-27T05:47:19.929Z,4.40
2022-11-27T05:53:21.585Z,4.40
2022-11-27T05:59:23.211Z,4.40
2022-11-27T06:05:24.824Z,4.40
2022-11-27T06:11:26.496Z,4.40
2022-11-27T06:17:28.283Z,4.30
2022-11-27T06:23:29.971Z,4.30
2022-11-27T06:29:31.560Z,4.30
2022-11-27T06:35:33.209Z,4.30
2022-11-27T06:41:34.886Z,4.30
2022-11-27T06:47:36.582Z,4.30
2022-11-27T06:53:38.833Z,4.30
2022-11-27T06:59:40.472Z,4.30
2022-11-27T07:05:42.144Z,4.30
2022-11-27T07:11:43.774Z,4.40
2022-11-27T07:17:45.417Z,4.40
2022-11-27T07:23:47.211Z,4.40
2022-11-27T07:29:49.052Z,4.40
2022-11-27T07:35:51.261Z,4.40
2022-11-27T07:41:52.886Z,4.50
2022-11-27T07:47:54.541Z,4.50
2022-11-27T07:53:56.370Z,4.50
2022-11-27T07:59:57.986Z,4.60
2022-11-27T08:05:59.601Z,4.60
2022-11-27T08:12:01.402Z,4.60
2022-11-27T08:18:03.503Z,4.70
2022-11-27T08:24:05.663Z,4.70
2022-11-27T08:30:07.893Z,4.70
2022-11-27T08:36:13.706Z,4.80
2022-11-27T08:42:19.202Z,4.80
2022-11-27T08:48:21.339Z,4.90
2022-11-27T08:54:23.026Z,5.10
2022-11-27T09:00:27.955Z,5.20
2022-11-27T09:06:34.810Z,5.20
2022-11-27T09:12:40.613Z,5.30
2022-11-27T09:18:45.907Z,5.50
2022-11-27T09:24:47.556Z,5.80
2022-11-27T09:30:49.212Z,5.80
2022-11-27T09:36:50.855Z,5.90
2022-11-27T09:42:58.123Z,5.90
2022-11-27T09:49:01.945Z,6.00
2022-11-27T09:55:15.743Z,6.10
2022-11-27T10:01:18.874Z,6.20
2022-11-27T10:07:39.783Z,6.30
2022-11-27T10:13:47.347Z,6.40
2022-11-27T10:19:53.337Z,6.50
2022-11-27T10:25:59.347Z,6.60
2022-11-27T10:32:07.100Z,6.70
2022-11-27T10:38:14.742Z,6.80
2022-11-27T10:44:31.430Z,6.90
2022-11-27T10:50:33.857Z,6.90
2022-11-27T10:56:55.491Z,7.00
2022-11-27T11:03:07.239Z,7.10
2022-11-27T11:09:23.466Z,7.20
2022-11-27T11:15:25.101Z,7.30
2022-11-27T11:21:26.721Z,7.40
2022-11-27T11:27:29.861Z,7.60
2022-11-27T11:33:37.332Z,7.70
2022-11-27T11:39:53.676Z,7.80
2022-11-27T11:46:03.629Z,7.90
2022-11-27T11:52:05.307Z,7.80
2022-11-27T11:58:21.159Z,7.80
2022-11-27T12:04:26.045Z,7.70
2022-11-27T12:10:42.968Z,7.70
2022-11-27T12:16:50.704Z,7.80
2022-11-27T12:23:28.557Z,7.90
2022-11-27T12:29:47.151Z,7.90
2022-11-27T12:35:51.796Z,7.90
2022-11-27T12:42:03.119Z,7.90
2022-11-27T12:48:20.036Z,8.00
2022-11-27T12:54:32.787Z,8.00
2022-11-27T13:00:37.026Z,8.00
2022-11-27T13:07:11.217Z,8.10
2022-11-27T13:13:31.975Z,8.00
2022-11-27T13:19:36.577Z,8.00
2022-11-27T13:25:44.407Z,8.10
2022-11-27T13:31:48.591Z,8.10
2022-11-27T13:37:56.296Z,8.20
2022-11-27T13:43:58.455Z,8.10
2022-11-27T13:50:04.509Z,8.20
2022-11-27T13:56:06.973Z,8.10
2022-11-27T14:02:08.962Z,8.20
2022-11-27T14:08:22.126Z,8.20
2022-11-27T14:14:25.082Z,8.20
2022-11-27T14:20:29.049Z,8.20
2022-11-27T14:26:31.404Z,8.10
2022-11-27T14:32:35.396Z,8.10
2022-11-27T14:38:37.021Z,8.10
2022-11-27T14:44:38.656Z,8.00
2022-11-27T14:50:40.289Z,8.10
2022-11-27T14:56:43.138Z,7.90
2022-11-27T15:02:45.684Z,8.00
2022-11-27T15:09:02.905Z,7.90
2022-11-27T15:15:20.083Z,7.90
2022-11-27T15:21:25.078Z,7.90
2022-11-27T15:27:26.875Z,7.90
2022-11-27T15:33:29.929Z,8.00
2022-11-27T15:39:51.863Z,7.80
2022-11-27T15:45:53.580Z,7.80
2022-11-27T15:51:56.077Z,7.80
2022-11-27T15:57:57.733Z,7.80
2022-11-27T16:03:59.381Z,7.80
2022-11-27T16:10:00.990Z,7.80
2022-11-27T16:16:03.560Z,7.80
2022-11-27T16:22:05.202Z,7.90
2022-11-27T16:28:10.051Z,7.80
2022-11-27T16:34:11.749Z,7.80
2022-11-27T16:40:13.718Z,7.80
2022-11-27T16:46:17.004Z,7.80
2022-11-27T16:52:18.717Z,7.80
2022-11-27T16:58:20.468Z,7.80
2022-11-27T17:04:22.098Z,7.80
2022-11-27T17:10:23.769Z,7.80
2022-11-27T17:16:25.857Z,7.80
2022-11-27T17:22:28.423Z,7.70
2022-11-27T17:28:30.490Z,7.70
2022-11-27T17:34:32.161Z,7.70
2022-11-27T17:40:33.903Z,7.70
2022-11-27T17:46:36.921Z,7.60
2022-11-27T17:52:38.589Z,7.60
2022-11-27T17:58:40.420Z,7.60
2022-11-27T18:04:42.080Z,7.60
2022-11-27T18:10:43.766Z,7.60
2022-11-27T18:16:45.523Z,7.60
2022-11-27T18:22:47.240Z,7.60
2022-11-27T18:28:50.152Z,7.60
2022-11-27T18:34:52.315Z,7.60
2022-11-27T18:40:53.936Z,7.50
2022-11-27T18:46:55.652Z,7.50
2022-11-27T18:52:57.286Z,7.50
2022-11-27T18:59:03.259Z,7.50
2022-11-27T19:05:05.059Z,7.40
2022-11-27T19:11:08.094Z,7.40
2022-11-27T19:17:09.668Z,7.40
2022-11-27T19:23:11.282Z,7.30
2022-11-27T19:29:14.706Z,7.30
2022-11-27T19:35:16.489Z,7.30
2022-11-27T19:41:18.476Z,7.30
2022-11-27T19:47:20.093Z,7.30
2022-11-27T19:53:22.934Z,7.30
2022-11-27T19:59:26.195Z,7.20
2022-11-27T20:05:27.835Z,7.30
2022-11-27T20:11:34.569Z,7.30
2022-11-27T20:17:37.068Z,7.20
2022-11-27T20:23:39.013Z,7.20
2022-11-27T20:29:40.970Z,7.20
2022-11-27T20:35:42.909Z,7.20
2022-11-27T20:41:45.530Z,7.10
2022-11-27T20:47:47.115Z,7.10
2022-11-27T20:53:49.431Z,7.00
2022-11-27T20:59:51.126Z,6.80
2022-11-27T21:05:52.802Z,6.80
2022-11-27T21:11:54.426Z,6.70
2022-11-27T21:17:56.054Z,6.60
2022-11-27T21:23:57.748Z,6.60
2022-11-27T21:29:59.390Z,6.50
2022-11-27T21:36:01.046Z,6.40
2022-11-27T21:42:02.736Z,6.50
2022-11-27T21:48:04.514Z,6.40
2022-11-27T21:54:09.535Z,6.30
2022-11-27T22:00:11.341Z,6.30
2022-11-27T22:06:14.647Z,6.40
2022-11-27T22:12:16.302Z,6.30
2022-11-27T22:18:18.214Z,6.40
2022-11-27T22:24:20.082Z,6.50
2022-11-27T22:30:22.425Z,6.40
2022-11-27T22:36:30.328Z,6.50
2022-11-27T22:42:31.930Z,6.50
2022-11-27T22:48:33.773Z,6.60
2022-11-27T22:54:35.454Z,6.50
2022-11-27T23:00:37.034Z,6.50
2022-11-27T23:06:38.660Z,6.40
2022-11-27T23:12:40.288Z,6.40
2022-11-27T23:18:41.973Z,6.30
2022-11-27T23:24:44.136Z,6.30
2022-11-27T23:30:45.867Z,6.20
2022-11-27T23:36:47.472Z,6.20
2022-11-27T23:42:49.208Z,6.20
2022-11-27T23:48:51.065Z,6.30
2022-11-27T23:54:52.744Z,6.40
